sensor_id;sensor_type;location;lat;lon;timestamp;P1;durP1;ratioP1;P2;durP2;ratioP2
8777;SDS011;4425;50.872;4.712;2024-03-23T00:54:06;11.07;;;3.40;;
8777;SDS011;4425;50.872;4.712;2024-03-23T00:56:32;9.37;;;3.10;;
8777;SDS011;4425;50.872;4.712;2024-03-23T00:58:59;10.00;;;3.40;;
8777;SDS011;4425;50.872;4.712;2024-03-23T01:01:25;11.03;;;3.13;;
8777;SDS011;4425;50.872;4.712;2024-03-23T01:03:52;16.73;;;3.50;;
8777;SDS011;4425;50.872;4.712;2024-03-23T01:06:18;12.00;;;3.40;;
8777;SDS011;4425;50.872;4.712;2024-03-23T01:08:46;11.33;;;3.37;;
8777;SDS011;4425;50.872;4.712;2024-03-23T01:11:12;9.13;;;2.60;;
8777;SDS011;4425;50.872;4.712;2024-03-23T01:13:39;9.27;;;3.00;;
8777;SDS011;4425;50.872;4.712;2024-03-23T01:16:05;13.93;;;4.60;;
8777;SDS011;4425;50.872;4.712;2024-03-23T01:18:32;10.87;;;3.23;;
8777;SDS011;4425;50.872;4.712;2024-03-23T01:20:58;12.83;;;3.07;;
8777;SDS011;4425;50.872;4.712;2024-03-23T01:23:25;7.63;;;3.30;;
8777;SDS011;4425;50.872;4.712;2024-03-23T01:25:55;13.00;;;3.97;;
8777;SDS011;4425;50.872;4.712;2024-03-23T01:28:22;8.67;;;3.20;;
8777;SDS011;4425;50.872;4.712;2024-03-23T01:30:48;14.17;;;4.03;;
8777;SDS011;4425;50.872;4.712;2024-03-23T01:33:15;12.83;;;4.70;;
8777;SDS011;4425;50.872;4.712;2024-03-23T01:35:41;14.73;;;4.20;;
8777;SDS011;4425;50.872;4.712;2024-03-23T01:38:08;13.47;;;4.57;;
8777;SDS011;4425;50.872;4.712;2024-03-23T01:40:34;16.57;;;4.87;;
8777;SDS011;4425;50.872;4.712;2024-03-23T01:43:04;15.90;;;5.20;;
8777;SDS011;4425;50.872;4.712;2024-03-23T01:45:30;10.57;;;5.53;;
8777;SDS011;4425;50.872;4.712;2024-03-23T01:47:57;14.67;;;5.23;;
8777;SDS011;4425;50.872;4.712;2024-03-23T01:50:24;18.57;;;5.23;;
8777;SDS011;4425;50.872;4.712;2024-03-23T01:52:51;12.40;;;5.13;;
8777;SDS011;4425;50.872;4.712;2024-03-23T01:55:17;12.37;;;5.07;;
8777;SDS011;4425;50.872;4.712;2024-03-23T01:57:44;10.83;;;4.67;;
8777;SDS011;4425;50.872;4.712;2024-03-23T02:00:12;13.40;;;5.00;;
8777;SDS011;4425;50.872;4.712;2024-03-23T02:02:43;16.83;;;5.67;;
8777;SDS011;4425;50.872;4.712;2024-03-23T02:05:09;15.30;;;5.00;;
8777;SDS011;4425;50.872;4.712;2024-03-23T02:07:37;11.53;;;5.20;;
8777;SDS011;4425;50.872;4.712;2024-03-23T02:10:04;8.90;;;4.90;;
8777;SDS011;4425;50.872;4.712;2024-03-23T02:12:32;15.37;;;4.90;;
8777;SDS011;4425;50.872;4.712;2024-03-23T02:14:58;15.50;;;5.33;;
8777;SDS011;4425;50.872;4.712;2024-03-23T02:17:27;12.87;;;5.13;;
8777;SDS011;4425;50.872;4.712;2024-03-23T02:19:54;14.57;;;4.90;;
8777;SDS011;4425;50.872;4.712;2024-03-23T02:22:21;15.33;;;5.33;;
8777;SDS011;4425;50.872;4.712;2024-03-23T02:24:48;13.40;;;4.77;;
8777;SDS011;4425;50.872;4.712;2024-03-23T02:27:15;12.20;;;4.60;;
8777;SDS011;4425;50.872;4.712;2024-03-23T02:29:41;13.63;;;5.13;;
8777;SDS011;4425;50.872;4.712;2024-03-23T02:32:08;14.17;;;5.00;;
8777;SDS011;4425;50.872;4.712;2024-03-23T02:34:34;12.83;;;4.80;;
8777;SDS011;4425;50.872;4.712;2024-03-23T02:37:01;11.83;;;5.20;;
8777;SDS011;4425;50.872;4.712;2024-03-23T02:39:27;12.37;;;4.50;;
8777;SDS011;4425;50.872;4.712;2024-03-23T02:41:58;10.17;;;4.93;;
8777;SDS011;4425;50.872;4.712;2024-03-23T02:44:24;14.80;;;5.40;;
8777;SDS011;4425;50.872;4.712;2024-03-23T02:46:51;13.63;;;5.50;;
8777;SDS011;4425;50.872;4.712;2024-03-23T02:49:17;11.10;;;5.13;;
8777;SDS011;4425;50.872;4.712;2024-03-23T02:51:46;14.23;;;5.37;;
8777;SDS011;4425;50.872;4.712;2024-03-23T02:54:13;12.97;;;6.20;;
8777;SDS011;4425;50.872;4.712;2024-03-23T02:56:40;15.63;;;5.43;;
8777;SDS011;4425;50.872;4.712;2024-03-23T02:59:07;11.33;;;5.27;;
8777;SDS011;4425;50.872;4.712;2024-03-23T03:01:34;15.53;;;6.63;;
8777;SDS011;4425;50.872;4.712;2024-03-23T03:04:00;12.83;;;6.40;;
8777;SDS011;4425;50.872;4.712;2024-03-23T03:06:27;17.70;;;6.93;;
8777;SDS011;4425;50.872;4.712;2024-03-23T03:08:55;13.40;;;6.70;;
8777;SDS011;4425;50.872;4.712;2024-03-23T03:11:22;18.30;;;7.50;;
8777;SDS011;4425;50.872;4.712;2024-03-23T03:13:48;14.57;;;6.40;;
8777;SDS011;4425;50.872;4.712;2024-03-23T03:16:16;17.97;;;7.57;;
8777;SDS011;4425;50.872;4.712;2024-03-23T03:18:42;14.43;;;6.80;;
8777;SDS011;4425;50.872;4.712;2024-03-23T03:21:11;18.43;;;7.60;;
8777;SDS011;4425;50.872;4.712;2024-03-23T03:23:37;15.90;;;6.80;;
8777;SDS011;4425;50.872;4.712;2024-03-23T03:26:04;13.60;;;6.97;;
8777;SDS011;4425;50.872;4.712;2024-03-23T03:28:31;20.30;;;6.87;;
8777;SDS011;4425;50.872;4.712;2024-03-23T03:30:58;18.97;;;5.93;;
8777;SDS011;4425;50.872;4.712;2024-03-23T03:33:26;20.07;;;5.80;;
8777;SDS011;4425;50.872;4.712;2024-03-23T03:35:52;14.50;;;6.07;;
8777;SDS011;4425;50.872;4.712;2024-03-23T03:38:19;21.10;;;6.47;;
8777;SDS011;4425;50.872;4.712;2024-03-23T03:40:46;21.73;;;6.50;;
8777;SDS011;4425;50.872;4.712;2024-03-23T03:43:12;18.20;;;5.77;;
8777;SDS011;4425;50.872;4.712;2024-03-23T03:45:39;18.57;;;6.97;;
8777;SDS011;4425;50.872;4.712;2024-03-23T03:48:05;16.63;;;5.93;;
8777;SDS011;4425;50.872;4.712;2024-03-23T03:50:34;19.33;;;6.57;;
8777;SDS011;4425;50.872;4.712;2024-03-23T03:53:00;12.37;;;4.50;;
8777;SDS011;4425;50.872;4.712;2024-03-23T03:55:27;20.87;;;6.47;;
8777;SDS011;4425;50.872;4.712;2024-03-23T03:57:53;20.73;;;6.20;;
8777;SDS011;4425;50.872;4.712;2024-03-23T04:00:20;21.87;;;6.83;;
8777;SDS011;4425;50.872;4.712;2024-03-23T04:02:47;20.37;;;7.63;;
8777;SDS011;4425;50.872;4.712;2024-03-23T04:05:13;11.13;;;6.17;;
8777;SDS011;4425;50.872;4.712;2024-03-23T04:07:41;21.03;;;6.80;;
8777;SDS011;4425;50.872;4.712;2024-03-23T04:10:07;20.27;;;7.47;;
8777;SDS011;4425;50.872;4.712;2024-03-23T04:12:35;20.73;;;7.43;;
8777;SDS011;4425;50.872;4.712;2024-03-23T04:15:00;17.47;;;6.90;;
8777;SDS011;4425;50.872;4.712;2024-03-23T04:17:29;23.27;;;8.00;;
8777;SDS011;4425;50.872;4.712;2024-03-23T04:19:57;17.27;;;8.20;;
8777;SDS011;4425;50.872;4.712;2024-03-23T04:22:24;19.00;;;7.53;;
8777;SDS011;4425;50.872;4.712;2024-03-23T04:24:53;22.17;;;7.93;;
8777;SDS011;4425;50.872;4.712;2024-03-23T04:27:20;16.83;;;7.63;;
8777;SDS011;4425;50.872;4.712;2024-03-23T04:29:46;21.90;;;7.77;;
8777;SDS011;4425;50.872;4.712;2024-03-23T04:32:14;19.23;;;7.33;;
8777;SDS011;4425;50.872;4.712;2024-03-23T04:34:40;19.50;;;8.47;;
8777;SDS011;4425;50.872;4.712;2024-03-23T04:37:08;24.80;;;7.90;;
8777;SDS011;4425;50.872;4.712;2024-03-23T04:39:35;24.67;;;8.43;;
8777;SDS011;4425;50.872;4.712;2024-03-23T04:42:04;21.20;;;8.67;;
8777;SDS011;4425;50.872;4.712;2024-03-23T04:44:31;18.07;;;8.87;;
8777;SDS011;4425;50.872;4.712;2024-03-23T04:46:59;18.93;;;8.00;;
8777;SDS011;4425;50.872;4.712;2024-03-23T04:49:27;20.67;;;8.30;;
8777;SDS011;4425;50.872;4.712;2024-03-23T04:51:54;18.07;;;8.43;;
8777;SDS011;4425;50.872;4.712;2024-03-23T04:54:20;35.57;;;9.27;;
8777;SDS011;4425;50.872;4.712;2024-03-23T04:56:47;28.07;;;9.83;;
8777;SDS011;4425;50.872;4.712;2024-03-23T04:59:16;24.90;;;9.43;;
8777;SDS011;4425;50.872;4.712;2024-03-23T05:01:42;19.73;;;9.17;;
8777;SDS011;4425;50.872;4.712;2024-03-23T05:04:08;23.80;;;9.00;;
8777;SDS011;4425;50.872;4.712;2024-03-23T05:06:35;18.73;;;8.63;;
8777;SDS011;4425;50.872;4.712;2024-03-23T05:09:01;15.90;;;8.53;;
8777;SDS011;4425;50.872;4.712;2024-03-23T05:11:31;25.93;;;8.63;;
8777;SDS011;4425;50.872;4.712;2024-03-23T05:13:58;18.43;;;7.90;;
8777;SDS011;4425;50.872;4.712;2024-03-23T05:16:25;17.73;;;8.43;;
8777;SDS011;4425;50.872;4.712;2024-03-23T05:18:53;16.83;;;8.27;;
8777;SDS011;4425;50.872;4.712;2024-03-23T05:21:19;21.63;;;8.20;;
8777;SDS011;4425;50.872;4.712;2024-03-23T05:23:47;16.70;;;6.80;;
8777;SDS011;4425;50.872;4.712;2024-03-23T05:26:12;16.17;;;6.97;;
8777;SDS011;4425;50.872;4.712;2024-03-23T05:28:40;15.90;;;6.57;;
8777;SDS011;4425;50.872;4.712;2024-03-23T05:31:05;13.47;;;5.37;;
8777;SDS011;4425;50.872;4.712;2024-03-23T05:33:35;17.27;;;6.17;;
8777;SDS011;4425;50.872;4.712;2024-03-23T05:36:03;12.67;;;5.20;;
8777;SDS011;4425;50.872;4.712;2024-03-23T05:38:31;13.33;;;5.23;;
8777;SDS011;4425;50.872;4.712;2024-03-23T05:40:57;17.30;;;5.50;;
8777;SDS011;4425;50.872;4.712;2024-03-23T05:43:24;12.20;;;6.00;;
8777;SDS011;4425;50.872;4.712;2024-03-23T05:45:54;14.73;;;6.23;;
8777;SDS011;4425;50.872;4.712;2024-03-23T05:48:21;18.87;;;6.33;;
8777;SDS011;4425;50.872;4.712;2024-03-23T05:50:49;13.93;;;5.60;;
8777;SDS011;4425;50.872;4.712;2024-03-23T05:53:16;15.63;;;6.57;;
8777;SDS011;4425;50.872;4.712;2024-03-23T05:55:43;13.57;;;6.20;;
8777;SDS011;4425;50.872;4.712;2024-03-23T05:58:10;12.77;;;6.03;;
8777;SDS011;4425;50.872;4.712;2024-03-23T06:00:36;15.53;;;6.63;;
8777;SDS011;4425;50.872;4.712;2024-03-23T06:03:04;14.00;;;6.70;;
8777;SDS011;4425;50.872;4.712;2024-03-23T06:05:30;17.60;;;7.30;;
8777;SDS011;4425;50.872;4.712;2024-03-23T06:07:58;19.30;;;6.73;;
8777;SDS011;4425;50.872;4.712;2024-03-23T06:10:24;14.60;;;6.90;;
8777;SDS011;4425;50.872;4.712;2024-03-23T06:12:51;14.97;;;6.27;;
8777;SDS011;4425;50.872;4.712;2024-03-23T06:15:17;14.30;;;6.60;;
8777;SDS011;4425;50.872;4.712;2024-03-23T06:17:45;15.23;;;6.17;;
8777;SDS011;4425;50.872;4.712;2024-03-23T06:20:12;22.33;;;6.73;;
8777;SDS011;4425;50.872;4.712;2024-03-23T06:22:39;13.07;;;5.97;;
8777;SDS011;4425;50.872;4.712;2024-03-23T06:25:06;13.77;;;5.13;;
8777;SDS011;4425;50.872;4.712;2024-03-23T06:27:34;10.80;;;5.80;;
8777;SDS011;4425;50.872;4.712;2024-03-23T06:30:00;14.90;;;6.77;;
8777;SDS011;4425;50.872;4.712;2024-03-23T06:32:27;12.60;;;4.87;;
8777;SDS011;4425;50.872;4.712;2024-03-23T06:34:54;15.60;;;5.67;;
8777;SDS011;4425;50.872;4.712;2024-03-23T06:37:21;14.57;;;5.67;;
8777;SDS011;4425;50.872;4.712;2024-03-23T06:39:46;10.83;;;4.80;;
8777;SDS011;4425;50.872;4.712;2024-03-23T06:42:15;12.13;;;4.80;;
8777;SDS011;4425;50.872;4.712;2024-03-23T06:44:41;11.17;;;5.30;;
8777;SDS011;4425;50.872;4.712;2024-03-23T06:47:08;12.87;;;4.67;;
8777;SDS011;4425;50.872;4.712;2024-03-23T06:49:33;18.13;;;4.20;;
8777;SDS011;4425;50.872;4.712;2024-03-23T06:52:00;11.17;;;4.30;;
8777;SDS011;4425;50.872;4.712;2024-03-23T06:54:26;12.67;;;4.20;;
8777;SDS011;4425;50.872;4.712;2024-03-23T06:56:53;13.47;;;4.53;;
8777;SDS011;4425;50.872;4.712;2024-03-23T06:59:20;13.47;;;4.23;;
8777;SDS011;4425;50.872;4.712;2024-03-23T07:01:47;6.87;;;3.23;;
8777;SDS011;4425;50.872;4.712;2024-03-23T07:04:13;17.20;;;4.60;;
8777;SDS011;4425;50.872;4.712;2024-03-23T07:06:43;12.40;;;3.93;;
8777;SDS011;4425;50.872;4.712;2024-03-23T07:09:09;11.77;;;3.93;;
8777;SDS011;4425;50.872;4.712;2024-03-23T07:11:36;9.73;;;3.70;;
8777;SDS011;4425;50.872;4.712;2024-03-23T07:14:02;8.17;;;3.73;;
8777;SDS011;4425;50.872;4.712;2024-03-23T07:16:30;6.43;;;2.80;;
8777;SDS011;4425;50.872;4.712;2024-03-23T07:18:56;10.30;;;3.20;;
8777;SDS011;4425;50.872;4.712;2024-03-23T07:21:23;9.70;;;3.20;;
8777;SDS011;4425;50.872;4.712;2024-03-23T07:23:49;10.50;;;3.37;;
8777;SDS011;4425;50.872;4.712;2024-03-23T07:26:16;7.73;;;2.37;;
8777;SDS011;4425;50.872;4.712;2024-03-23T07:28:44;5.27;;;1.93;;
8777;SDS011;4425;50.872;4.712;2024-03-23T07:31:12;12.47;;;2.77;;
8777;SDS011;4425;50.872;4.712;2024-03-23T07:33:43;10.83;;;2.60;;
8777;SDS011;4425;50.872;4.712;2024-03-23T07:36:11;7.23;;;2.70;;
8777;SDS011;4425;50.872;4.712;2024-03-23T07:38:39;9.43;;;2.77;;
8777;SDS011;4425;50.872;4.712;2024-03-23T07:41:07;6.87;;;2.90;;
8777;SDS011;4425;50.872;4.712;2024-03-23T07:43:34;9.50;;;2.90;;
8777;SDS011;4425;50.872;4.712;2024-03-23T07:46:01;9.90;;;2.80;;
8777;SDS011;4425;50.872;4.712;2024-03-23T07:48:28;6.13;;;2.73;;
8777;SDS011;4425;50.872;4.712;2024-03-23T07:50:57;7.20;;;2.80;;
8777;SDS011;4425;50.872;4.712;2024-03-23T07:53:24;5.37;;;2.20;;
8777;SDS011;4425;50.872;4.712;2024-03-23T07:55:54;9.87;;;2.57;;
8777;SDS011;4425;50.872;4.712;2024-03-23T07:58:21;6.05;;;2.58;;
8777;SDS011;4425;50.872;4.712;2024-03-23T08:00:48;7.35;;;2.38;;
8777;SDS011;4425;50.872;4.712;2024-03-23T08:03:14;6.65;;;2.63;;
8777;SDS011;4425;50.872;4.712;2024-03-23T08:05:41;5.90;;;2.17;;
8777;SDS011;4425;50.872;4.712;2024-03-23T08:08:08;6.25;;;2.88;;
8777;SDS011;4425;50.872;4.712;2024-03-23T08:10:35;4.60;;;2.33;;
8777;SDS011;4425;50.872;4.712;2024-03-23T08:13:02;4.72;;;1.33;;
8777;SDS011;4425;50.872;4.712;2024-03-23T08:15:30;0.80;;;0.40;;
8777;SDS011;4425;50.872;4.712;2024-03-23T08:17:58;1.70;;;0.98;;
8777;SDS011;4425;50.872;4.712;2024-03-23T08:20:25;0.82;;;0.82;;
8777;SDS011;4425;50.872;4.712;2024-03-23T08:22:52;9.30;;;3.05;;
8777;SDS011;4425;50.872;4.712;2024-03-23T08:25:20;5.37;;;2.17;;
8777;SDS011;4425;50.872;4.712;2024-03-23T08:27:46;3.55;;;2.05;;
8777;SDS011;4425;50.872;4.712;2024-03-23T08:30:13;5.03;;;1.92;;
8777;SDS011;4425;50.872;4.712;2024-03-23T08:32:39;0.80;;;0.80;;
8777;SDS011;4425;50.872;4.712;2024-03-23T08:35:07;1.50;;;1.25;;
8777;SDS011;4425;50.872;4.712;2024-03-23T08:37:33;1.77;;;1.17;;
8777;SDS011;4425;50.872;4.712;2024-03-23T08:40:00;2.53;;;1.05;;
8777;SDS011;4425;50.872;4.712;2024-03-23T08:42:27;6.40;;;2.10;;
8777;SDS011;4425;50.872;4.712;2024-03-23T08:44:54;4.47;;;1.70;;
8777;SDS011;4425;50.872;4.712;2024-03-23T08:47:20;12.60;;;2.65;;
8777;SDS011;4425;50.872;4.712;2024-03-23T08:49:47;5.93;;;2.30;;
8777;SDS011;4425;50.872;4.712;2024-03-23T08:52:13;2.90;;;1.02;;
8777;SDS011;4425;50.872;4.712;2024-03-23T08:54:40;0.77;;;0.77;;
8777;SDS011;4425;50.872;4.712;2024-03-23T08:57:06;1.67;;;0.97;;
8777;SDS011;4425;50.872;4.712;2024-03-23T08:59:34;3.83;;;2.10;;
8777;SDS011;4425;50.872;4.712;2024-03-23T09:02:00;11.35;;;2.78;;
8777;SDS011;4425;50.872;4.712;2024-03-23T09:04:27;6.83;;;2.53;;
8777;SDS011;4425;50.872;4.712;2024-03-23T09:06:53;0.60;;;0.60;;
8777;SDS011;4425;50.872;4.712;2024-03-23T09:09:20;1.23;;;1.23;;
8777;SDS011;4425;50.872;4.712;2024-03-23T09:11:47;0.50;;;0.50;;
8777;SDS011;4425;50.872;4.712;2024-03-23T09:14:14;8.82;;;2.63;;
8777;SDS011;4425;50.872;4.712;2024-03-23T09:16:41;8.82;;;2.50;;
8777;SDS011;4425;50.872;4.712;2024-03-23T09:19:08;1.88;;;1.63;;
8777;SDS011;4425;50.872;4.712;2024-03-23T09:21:34;1.67;;;1.45;;
8777;SDS011;4425;50.872;4.712;2024-03-23T09:24:01;1.30;;;1.10;;
8777;SDS011;4425;50.872;4.712;2024-03-23T09:26:27;3.13;;;1.23;;
8777;SDS011;4425;50.872;4.712;2024-03-23T09:28:54;0.80;;;0.80;;
8777;SDS011;4425;50.872;4.712;2024-03-23T09:31:20;1.10;;;0.50;;
8777;SDS011;4425;50.872;4.712;2024-03-23T09:33:49;4.22;;;0.93;;
8777;SDS011;4425;50.872;4.712;2024-03-23T09:36:15;0.30;;;0.30;;
8777;SDS011;4425;50.872;4.712;2024-03-23T09:38:42;0.40;;;0.40;;
8777;SDS011;4425;50.872;4.712;2024-03-23T09:41:08;0.98;;;0.55;;
8777;SDS011;4425;50.872;4.712;2024-03-23T09:43:35;0.60;;;0.55;;
8777;SDS011;4425;50.872;4.712;2024-03-23T09:46:01;0.30;;;0.30;;
8777;SDS011;4425;50.872;4.712;2024-03-23T09:48:29;2.08;;;1.08;;
8777;SDS011;4425;50.872;4.712;2024-03-23T09:50:57;5.40;;;1.63;;
8777;SDS011;4425;50.872;4.712;2024-03-23T09:53:24;3.38;;;1.38;;
8777;SDS011;4425;50.872;4.712;2024-03-23T09:55:50;1.05;;;1.05;;
8777;SDS011;4425;50.872;4.712;2024-03-23T09:58:18;0.83;;;0.73;;
8777;SDS011;4425;50.872;4.712;2024-03-23T10:00:44;2.47;;;1.08;;
8777;SDS011;4425;50.872;4.712;2024-03-23T10:03:11;0.70;;;0.70;;
8777;SDS011;4425;50.872;4.712;2024-03-23T10:05:38;1.70;;;1.23;;
8777;SDS011;4425;50.872;4.712;2024-03-23T10:08:18;4.30;;;1.00;;
8777;SDS011;4425;50.872;4.712;2024-03-23T10:10:44;4.50;;;1.10;;
8777;SDS011;4425;50.872;4.712;2024-03-23T10:13:23;0.60;;;0.60;;
8777;SDS011;4425;50.872;4.712;2024-03-23T10:15:54;2.60;;;1.10;;
8777;SDS011;4425;50.872;4.712;2024-03-23T10:18:23;5.10;;;1.60;;
8777;SDS011;4425;50.872;4.712;2024-03-23T10:20:50;2.40;;;0.77;;
8777;SDS011;4425;50.872;4.712;2024-03-23T10:23:20;1.15;;;0.98;;
8777;SDS011;4425;50.872;4.712;2024-03-23T10:25:47;2.50;;;1.38;;
8777;SDS011;4425;50.872;4.712;2024-03-23T10:28:14;0.80;;;0.80;;
8777;SDS011;4425;50.872;4.712;2024-03-23T10:30:41;8.52;;;1.77;;
8777;SDS011;4425;50.872;4.712;2024-03-23T10:33:08;5.05;;;1.15;;
8777;SDS011;4425;50.872;4.712;2024-03-23T10:35:35;1.63;;;1.13;;
8777;SDS011;4425;50.872;4.712;2024-03-23T10:38:04;10.63;;;2.17;;
8777;SDS011;4425;50.872;4.712;2024-03-23T10:40:33;3.58;;;2.00;;
8777;SDS011;4425;50.872;4.712;2024-03-23T10:43:00;1.42;;;1.17;;
8777;SDS011;4425;50.872;4.712;2024-03-23T10:45:29;6.38;;;3.70;;
8777;SDS011;4425;50.872;4.712;2024-03-23T10:47:56;1.48;;;0.70;;
8777;SDS011;4425;50.872;4.712;2024-03-23T10:50:22;9.30;;;2.05;;
8777;SDS011;4425;50.872;4.712;2024-03-23T10:52:49;4.40;;;2.17;;
8777;SDS011;4425;50.872;4.712;2024-03-23T10:55:18;5.40;;;1.70;;
8777;SDS011;4425;50.872;4.712;2024-03-23T10:57:49;0.77;;;0.77;;
8777;SDS011;4425;50.872;4.712;2024-03-23T11:00:18;1.13;;;0.73;;
8777;SDS011;4425;50.872;4.712;2024-03-23T11:02:49;1.50;;;0.55;;
8777;SDS011;4425;50.872;4.712;2024-03-23T11:05:30;1.25;;;0.90;;
8777;SDS011;4425;50.872;4.712;2024-03-23T11:07:58;0.70;;;0.70;;
8777;SDS011;4425;50.872;4.712;2024-03-23T11:10:27;0.33;;;0.33;;
8777;SDS011;4425;50.872;4.712;2024-03-23T11:12:56;2.20;;;1.08;;
8777;SDS011;4425;50.872;4.712;2024-03-23T11:15:22;2.03;;;1.02;;
8777;SDS011;4425;50.872;4.712;2024-03-23T11:18:02;0.70;;;0.50;;
8777;SDS011;4425;50.872;4.712;2024-03-23T11:20:31;4.50;;;0.82;;
8777;SDS011;4425;50.872;4.712;2024-03-23T11:22:59;2.80;;;1.33;;
8777;SDS011;4425;50.872;4.712;2024-03-23T11:25:25;0.47;;;0.47;;
8777;SDS011;4425;50.872;4.712;2024-03-23T11:27:54;1.90;;;1.45;;
8777;SDS011;4425;50.872;4.712;2024-03-23T11:30:23;2.70;;;0.60;;
8777;SDS011;4425;50.872;4.712;2024-03-23T11:32:51;1.58;;;1.05;;
8777;SDS011;4425;50.872;4.712;2024-03-23T11:35:26;0.97;;;0.97;;
8777;SDS011;4425;50.872;4.712;2024-03-23T11:38:03;1.70;;;1.05;;
8777;SDS011;4425;50.872;4.712;2024-03-23T11:40:30;1.45;;;0.80;;
8777;SDS011;4425;50.872;4.712;2024-03-23T11:42:59;1.73;;;1.00;;
8777;SDS011;4425;50.872;4.712;2024-03-23T11:45:26;0.60;;;0.60;;
8777;SDS011;4425;50.872;4.712;2024-03-23T11:48:04;0.90;;;0.80;;
8777;SDS011;4425;50.872;4.712;2024-03-23T11:50:30;0.82;;;0.82;;
8777;SDS011;4425;50.872;4.712;2024-03-23T11:55:48;0.47;;;0.47;;
8777;SDS011;4425;50.872;4.712;2024-03-23T11:58:18;0.43;;;0.43;;
8777;SDS011;4425;50.872;4.712;2024-03-23T12:00:50;1.60;;;0.70;;
8777;SDS011;4425;50.872;4.712;2024-03-23T12:03:18;3.50;;;0.90;;
8777;SDS011;4425;50.872;4.712;2024-03-23T12:05:47;0.77;;;0.77;;
8777;SDS011;4425;50.872;4.712;2024-03-23T12:08:18;13.75;;;1.70;;
8777;SDS011;4425;50.872;4.712;2024-03-23T12:10:47;7.83;;;1.03;;
8777;SDS011;4425;50.872;4.712;2024-03-23T12:13:18;3.50;;;0.90;;
8777;SDS011;4425;50.872;4.712;2024-03-23T12:15:45;5.63;;;0.70;;
8777;SDS011;4425;50.872;4.712;2024-03-23T12:18:12;3.50;;;0.43;;
8777;SDS011;4425;50.872;4.712;2024-03-23T12:20:39;0.80;;;0.80;;
8777;SDS011;4425;50.872;4.712;2024-03-23T12:23:07;0.40;;;0.40;;
8777;SDS011;4425;50.872;4.712;2024-03-23T12:25:37;0.63;;;0.63;;
8777;SDS011;4425;50.872;4.712;2024-03-23T12:28:08;1.53;;;0.70;;
8777;SDS011;4425;50.872;4.712;2024-03-23T12:30:37;2.43;;;0.43;;
8777;SDS011;4425;50.872;4.712;2024-03-23T12:33:06;2.03;;;1.10;;
8777;SDS011;4425;50.872;4.712;2024-03-23T12:35:32;0.80;;;0.60;;
8777;SDS011;4425;50.872;4.712;2024-03-23T12:37:59;2.35;;;1.00;;
8777;SDS011;4425;50.872;4.712;2024-03-23T12:40:25;0.63;;;0.63;;
8777;SDS011;4425;50.872;4.712;2024-03-23T12:42:53;0.80;;;0.80;;
8777;SDS011;4425;50.872;4.712;2024-03-23T12:45:19;0.90;;;0.90;;
8777;SDS011;4425;50.872;4.712;2024-03-23T12:47:47;0.80;;;0.80;;
8777;SDS011;4425;50.872;4.712;2024-03-23T12:50:13;0.60;;;0.60;;
8777;SDS011;4425;50.872;4.712;2024-03-23T12:52:40;1.60;;;0.90;;
8777;SDS011;4425;50.872;4.712;2024-03-23T12:55:06;0.30;;;0.30;;
8777;SDS011;4425;50.872;4.712;2024-03-23T12:57:34;1.17;;;0.70;;
8777;SDS011;4425;50.872;4.712;2024-03-23T13:00:00;2.30;;;1.00;;
8777;SDS011;4425;50.872;4.712;2024-03-23T13:02:27;0.40;;;0.40;;
8777;SDS011;4425;50.872;4.712;2024-03-23T13:04:54;0.30;;;0.30;;
8777;SDS011;4425;50.872;4.712;2024-03-23T13:07:22;1.60;;;0.65;;
8777;SDS011;4425;50.872;4.712;2024-03-23T13:09:49;0.32;;;0.32;;
8777;SDS011;4425;50.872;4.712;2024-03-23T13:12:17;2.80;;;0.80;;
8777;SDS011;4425;50.872;4.712;2024-03-23T13:14:43;0.60;;;0.60;;
8777;SDS011;4425;50.872;4.712;2024-03-23T13:17:11;2.50;;;0.70;;
8777;SDS011;4425;50.872;4.712;2024-03-23T13:19:37;1.40;;;0.57;;
8777;SDS011;4425;50.872;4.712;2024-03-23T13:22:05;0.60;;;0.60;;
8777;SDS011;4425;50.872;4.712;2024-03-23T13:24:31;1.17;;;0.60;;
8777;SDS011;4425;50.872;4.712;2024-03-23T13:26:58;0.70;;;0.50;;
8777;SDS011;4425;50.872;4.712;2024-03-23T13:29:24;0.70;;;0.60;;
8777;SDS011;4425;50.872;4.712;2024-03-23T13:31:52;0.80;;;0.80;;
8777;SDS011;4425;50.872;4.712;2024-03-23T13:34:18;1.40;;;0.40;;
8777;SDS011;4425;50.872;4.712;2024-03-23T13:36:45;1.38;;;0.80;;
8777;SDS011;4425;50.872;4.712;2024-03-23T13:39:13;0.65;;;0.65;;
8777;SDS011;4425;50.872;4.712;2024-03-23T13:41:41;1.10;;;0.80;;
8777;SDS011;4425;50.872;4.712;2024-03-23T13:44:08;0.85;;;0.85;;
8777;SDS011;4425;50.872;4.712;2024-03-23T13:46:36;0.60;;;0.60;;
8777;SDS011;4425;50.872;4.712;2024-03-23T13:49:03;1.60;;;0.87;;
8777;SDS011;4425;50.872;4.712;2024-03-23T13:51:30;0.40;;;0.40;;
8777;SDS011;4425;50.872;4.712;2024-03-23T13:53:56;0.50;;;0.50;;
8777;SDS011;4425;50.872;4.712;2024-03-23T13:56:27;0.30;;;0.30;;
8777;SDS011;4425;50.872;4.712;2024-03-23T13:58:54;1.85;;;0.88;;
8777;SDS011;4425;50.872;4.712;2024-03-23T14:01:21;0.50;;;0.50;;
8777;SDS011;4425;50.872;4.712;2024-03-23T14:03:47;3.47;;;1.53;;
8777;SDS011;4425;50.872;4.712;2024-03-23T14:06:15;0.65;;;0.45;;
8777;SDS011;4425;50.872;4.712;2024-03-23T14:08:41;3.55;;;1.05;;
8777;SDS011;4425;50.872;4.712;2024-03-23T14:11:08;0.70;;;0.70;;
8777;SDS011;4425;50.872;4.712;2024-03-23T14:13:36;0.85;;;0.45;;
8777;SDS011;4425;50.872;4.712;2024-03-23T14:16:03;0.40;;;0.40;;
8777;SDS011;4425;50.872;4.712;2024-03-23T14:18:30;0.50;;;0.50;;
8777;SDS011;4425;50.872;4.712;2024-03-23T14:20:58;0.70;;;0.68;;
8777;SDS011;4425;50.872;4.712;2024-03-23T14:23:25;0.40;;;0.40;;
8777;SDS011;4425;50.872;4.712;2024-03-23T14:25:53;0.45;;;0.45;;
8777;SDS011;4425;50.872;4.712;2024-03-23T14:28:19;1.30;;;0.75;;
8777;SDS011;4425;50.872;4.712;2024-03-23T14:30:49;1.83;;;0.63;;
8777;SDS011;4425;50.872;4.712;2024-03-23T14:33:15;0.32;;;0.32;;
8777;SDS011;4425;50.872;4.712;2024-03-23T14:35:43;1.92;;;1.10;;
8777;SDS011;4425;50.872;4.712;2024-03-23T14:38:18;3.97;;;1.40;;
8777;SDS011;4425;50.872;4.712;2024-03-23T14:40:45;3.03;;;1.48;;
8777;SDS011;4425;50.872;4.712;2024-03-23T14:43:10;0.70;;;0.70;;
8777;SDS011;4425;50.872;4.712;2024-03-23T14:45:45;0.30;;;0.30;;
8777;SDS011;4425;50.872;4.712;2024-03-23T14:48:30;0.30;;;0.30;;
8777;SDS011;4425;50.872;4.712;2024-03-23T14:50:57;0.40;;;0.40;;
8777;SDS011;4425;50.872;4.712;2024-03-23T14:53:24;0.50;;;0.50;;
8777;SDS011;4425;50.872;4.712;2024-03-23T14:55:53;0.30;;;0.30;;
8777;SDS011;4425;50.872;4.712;2024-03-23T14:58:19;0.30;;;0.30;;
8777;SDS011;4425;50.872;4.712;2024-03-23T15:00:48;0.40;;;0.40;;
8777;SDS011;4425;50.872;4.712;2024-03-23T15:03:13;0.40;;;0.40;;
8777;SDS011;4425;50.872;4.712;2024-03-23T15:05:42;2.33;;;0.82;;
8777;SDS011;4425;50.872;4.712;2024-03-23T15:08:16;0.85;;;0.85;;
8777;SDS011;4425;50.872;4.712;2024-03-23T15:10:43;0.30;;;0.30;;
8777;SDS011;4425;50.872;4.712;2024-03-23T15:13:09;0.50;;;0.50;;
8777;SDS011;4425;50.872;4.712;2024-03-23T15:15:37;1.30;;;1.20;;
8777;SDS011;4425;50.872;4.712;2024-03-23T15:18:04;2.50;;;2.30;;
8777;SDS011;4425;50.872;4.712;2024-03-23T15:20:31;0.40;;;0.40;;
8777;SDS011;4425;50.872;4.712;2024-03-23T15:23:02;0.40;;;0.40;;
8777;SDS011;4425;50.872;4.712;2024-03-23T15:25:29;0.30;;;0.30;;
8777;SDS011;4425;50.872;4.712;2024-03-23T15:27:55;3.42;;;1.17;;
8777;SDS011;4425;50.872;4.712;2024-03-23T15:30:23;0.40;;;0.40;;
8777;SDS011;4425;50.872;4.712;2024-03-23T15:32:48;2.00;;;0.50;;
8777;SDS011;4425;50.872;4.712;2024-03-23T15:35:15;0.30;;;0.30;;
8777;SDS011;4425;50.872;4.712;2024-03-23T15:37:41;4.45;;;1.23;;
8777;SDS011;4425;50.872;4.712;2024-03-23T15:40:10;0.30;;;0.30;;
8777;SDS011;4425;50.872;4.712;2024-03-23T15:42:38;0.70;;;0.70;;
8777;SDS011;4425;50.872;4.712;2024-03-23T15:45:06;0.73;;;0.73;;
8777;SDS011;4425;50.872;4.712;2024-03-23T15:47:32;0.30;;;0.30;;
8777;SDS011;4425;50.872;4.712;2024-03-23T15:49:59;0.50;;;0.50;;
8777;SDS011;4425;50.872;4.712;2024-03-23T15:52:25;3.25;;;1.25;;
8777;SDS011;4425;50.872;4.712;2024-03-23T15:54:52;0.80;;;0.60;;
8777;SDS011;4425;50.872;4.712;2024-03-23T15:57:19;0.40;;;0.40;;
8777;SDS011;4425;50.872;4.712;2024-03-23T15:59:46;0.30;;;0.30;;
8777;SDS011;4425;50.872;4.712;2024-03-23T16:02:12;0.30;;;0.30;;
8777;SDS011;4425;50.872;4.712;2024-03-23T16:04:39;0.50;;;0.50;;
8777;SDS011;4425;50.872;4.712;2024-03-23T16:07:05;1.90;;;0.60;;